sensor_id;sensor_type;location;lat;lon;timestamp;temperature;humidity
20985;DHT22;10651;47.552;7.606;2023-07-08T06:16:11;20.50;99.90
20985;DHT22;10651;47.552;7.606;2023-07-08T06:18:37;20.70;99.90
20985;DHT22;10651;47.552;7.606;2023-07-08T06:21:03;20.60;99.90
20985;DHT22;10651;47.552;7.606;2023-07-08T06:23:29;20.60;99.90
20985;DHT22;10651;47.552;7.606;2023-07-08T06:25:56;20.60;99.90
20985;DHT22;10651;47.552;7.606;2023-07-08T06:28:22;20.50;99.90
20985;DHT22;10651;47.552;7.606;2023-07-08T06:30:49;20.60;99.90
20985;DHT22;10651;47.552;7.606;2023-07-08T06:33:15;20.50;99.90
20985;DHT22;10651;47.552;7.606;2023-07-08T06:35:41;20.50;99.90
20985;DHT22;10651;47.552;7.606;2023-07-08T06:38:07;20.40;99.90
20985;DHT22;10651;47.552;7.606;2023-07-08T06:40:34;20.40;99.90
20985;DHT22;10651;47.552;7.606;2023-07-08T06:43:01;20.40;99.90
20985;DHT22;10651;47.552;7.606;2023-07-08T06:45:32;20.50;99.90
20985;DHT22;10651;47.552;7.606;2023-07-08T06:48:09;20.40;99.90
20985;DHT22;10651;47.552;7.606;2023-07-08T06:50:57;20.40;99.90
20985;DHT22;10651;47.552;7.606;2023-07-08T06:53:43;20.40;99.90
20985;DHT22;10651;47.552;7.606;2023-07-08T06:56:09;20.40;99.90
20985;DHT22;10651;47.552;7.606;2023-07-08T06:58:35;20.40;99.90
20985;DHT22;10651;47.552;7.606;2023-07-08T07:01:00;20.30;99.90
20985;DHT22;10651;47.552;7.606;2023-07-08T07:03:26;20.30;99.90
20985;DHT22;10651;47.552;7.606;2023-07-08T07:06:04;20.20;99.90
20985;DHT22;10651;47.552;7.606;2023-07-08T07:08:53;20.40;99.90
20985;DHT22;10651;47.552;7.606;2023-07-08T07:11:19;20.30;99.90
20985;DHT22;10651;47.552;7.606;2023-07-08T07:13:45;20.30;99.90
20985;DHT22;10651;47.552;7.606;2023-07-08T07:16:11;20.40;99.90
20985;DHT22;10651;47.552;7.606;2023-07-08T07:18:37;20.40;99.90
20985;DHT22;10651;47.552;7.606;2023-07-08T07:21:04;20.40;99.90
20985;DHT22;10651;47.552;7.606;2023-07-08T07:23:30;20.50;99.90
20985;DHT22;10651;47.552;7.606;2023-07-08T07:25:55;20.50;99.90
20985;DHT22;10651;47.552;7.606;2023-07-08T07:28:22;20.50;99.90
20985;DHT22;10651;47.552;7.606;2023-07-08T07:30:56;20.50;99.90
20985;DHT22;10651;47.552;7.606;2023-07-08T07:33:23;20.60;99.90
20985;DHT22;10651;47.552;7.606;2023-07-08T07:35:49;20.60;99.90
20985;DHT22;10651;47.552;7.606;2023-07-08T07:38:15;20.60;99.90
20985;DHT22;10651;47.552;7.606;2023-07-08T07:40:42;20.60;99.90
20985;DHT22;10651;47.552;7.606;2023-07-08T07:43:08;20.60;99.90
20985;DHT22;10651;47.552;7.606;2023-07-08T07:45:34;20.60;99.90
20985;DHT22;10651;47.552;7.606;2023-07-08T07:48:00;20.60;99.90
20985;DHT22;10651;47.552;7.606;2023-07-08T07:50:25;20.50;99.90
20985;DHT22;10651;47.552;7.606;2023-07-08T07:52:51;20.50;99.90
20985;DHT22;10651;47.552;7.606;2023-07-08T07:55:17;20.50;99.90
20985;DHT22;10651;47.552;7.606;2023-07-08T07:57:43;20.40;99.90
20985;DHT22;10651;47.552;7.606;2023-07-08T08:00:12;20.40;99.90
20985;DHT22;10651;47.552;7.606;2023-07-08T08:02:40;20.30;99.90
20985;DHT22;10651;47.552;7.606;2023-07-08T08:05:06;20.30;99.90
20985;DHT22;10651;47.552;7.606;2023-07-08T08:07:32;20.30;99.90
20985;DHT22;10651;47.552;7.606;2023-07-08T08:09:57;20.30;99.90
20985;DHT22;10651;47.552;7.606;2023-07-08T08:12:23;20.40;99.90
20985;DHT22;10651;47.552;7.606;2023-07-08T08:14:50;20.40;99.90
20985;DHT22;10651;47.552;7.606;2023-07-08T08:17:16;20.40;99.90
20985;DHT22;10651;47.552;7.606;2023-07-08T08:19:42;20.40;99.90
20985;DHT22;10651;47.552;7.606;2023-07-08T08:22:07;20.40;99.90
20985;DHT22;10651;47.552;7.606;2023-07-08T08:24:34;20.40;99.90
20985;DHT22;10651;47.552;7.606;2023-07-08T08:27:00;20.40;99.90
20985;DHT22;10651;47.552;7.606;2023-07-08T08:29:25;20.40;99.90
20985;DHT22;10651;47.552;7.606;2023-07-08T08:31:54;20.50;99.90
20985;DHT22;10651;47.552;7.606;2023-07-08T08:34:23;20.60;99.90
20985;DHT22;10651;47.552;7.606;2023-07-08T08:36:48;20.70;99.90
20985;DHT22;10651;47.552;7.606;2023-07-08T08:39:14;20.80;99.90
20985;DHT22;10651;47.552;7.606;2023-07-08T08:41:42;20.80;99.90
20985;DHT22;10651;47.552;7.606;2023-07-08T08:44:14;20.80;99.90
20985;DHT22;10651;47.552;7.606;2023-07-08T08:47:16;20.90;99.90
20985;DHT22;10651;47.552;7.606;2023-07-08T08:49:50;21.00;99.90
20985;DHT22;10651;47.552;7.606;2023-07-08T08:52:19;21.00;99.90
20985;DHT22;10651;47.552;7.606;2023-07-08T08:54:45;21.10;99.90
20985;DHT22;10651;47.552;7.606;2023-07-08T08:57:37;21.30;99.90
20985;DHT22;10651;47.552;7.606;2023-07-08T09:00:08;21.50;99.90
20985;DHT22;10651;47.552;7.606;2023-07-08T09:02:57;21.60;99.90
20985;DHT22;10651;47.552;7.606;2023-07-08T09:05:25;21.70;99.90
20985;DHT22;10651;47.552;7.606;2023-07-08T09:10:57;21.80;99.90
20985;DHT22;10651;47.552;7.606;2023-07-08T09:13:35;22.00;99.90
20985;DHT22;10651;47.552;7.606;2023-07-08T09:18:45;22.30;99.90
20985;DHT22;10651;47.552;7.606;2023-07-08T09:21:30;22.50;99.90
20985;DHT22;10651;47.552;7.606;2023-07-08T09:24:01;22.60;99.90
20985;DHT22;10651;47.552;7.606;2023-07-08T09:26:30;22.70;99.90
20985;DHT22;10651;47.552;7.606;2023-07-08T09:28:57;22.80;99.90
20985;DHT22;10651;47.552;7.606;2023-07-08T09:31:28;22.90;99.90
20985;DHT22;10651;47.552;7.606;2023-07-08T09:34:35;23.00;99.90
20985;DHT22;10651;47.552;7.606;2023-07-08T09:37:03;23.10;99.90
20985;DHT22;10651;47.552;7.606;2023-07-08T09:39:28;23.20;99.90
20985;DHT22;10651;47.552;7.606;2023-07-08T09:41:55;23.40;99.90
20985;DHT22;10651;47.552;7.606;2023-07-08T09:44:24;23.50;99.90
20985;DHT22;10651;47.552;7.606;2023-07-08T09:46:57;23.60;99.90
20985;DHT22;10651;47.552;7.606;2023-07-08T09:49:28;23.60;99.90
20985;DHT22;10651;47.552;7.606;2023-07-08T09:51:54;23.50;99.90
20985;DHT22;10651;47.552;7.606;2023-07-08T09:54:22;23.70;99.90
20985;DHT22;10651;47.552;7.606;2023-07-08T09:57:25;23.70;99.90
20985;DHT22;10651;47.552;7.606;2023-07-08T10:00:02;23.80;99.90
20985;DHT22;10651;47.552;7.606;2023-07-08T10:02:38;23.80;99.90
20985;DHT22;10651;47.552;7.606;2023-07-08T10:05:19;23.80;99.90
20985;DHT22;10651;47.552;7.606;2023-07-08T10:07:46;23.90;99.90
20985;DHT22;10651;47.552;7.606;2023-07-08T10:10:16;24.10;99.90
20985;DHT22;10651;47.552;7.606;2023-07-08T10:12:55;24.40;99.90
20985;DHT22;10651;47.552;7.606;2023-07-08T10:15:42;24.60;99.90
20985;DHT22;10651;47.552;7.606;2023-07-08T10:18:17;24.90;99.90
20985;DHT22;10651;47.552;7.606;2023-07-08T10:26:26;25.20;99.90
20985;DHT22;10651;47.552;7.606;2023-07-08T10:34:55;24.90;99.90
20985;DHT22;10651;47.552;7.606;2023-07-08T10:37:47;24.90;99.90
20985;DHT22;10651;47.552;7.606;2023-07-08T10:48:06;24.50;99.90
20985;DHT22;10651;47.552;7.606;2023-07-08T10:50:59;24.40;99.90
20985;DHT22;10651;47.552;7.606;2023-07-08T10:53:57;24.30;99.90
20985;DHT22;10651;47.552;7.606;2023-07-08T10:56:54;24.20;99.90
20985;DHT22;10651;47.552;7.606;2023-07-08T10:59:43;24.20;99.90
20985;DHT22;10651;47.552;7.606;2023-07-08T11:07:47;24.10;99.90
20985;DHT22;10651;47.552;7.606;2023-07-08T11:10:22;24.10;99.90
20985;DHT22;10651;47.552;7.606;2023-07-08T11:12:56;24.20;99.90
20985;DHT22;10651;47.552;7.606;2023-07-08T11:15:32;24.30;99.90
20985;DHT22;10651;47.552;7.606;2023-07-08T11:18:11;24.30;99.90
20985;DHT22;10651;47.552;7.606;2023-07-08T11:20:45;24.30;99.90
20985;DHT22;10651;47.552;7.606;2023-07-08T11:23:40;24.60;99.90
20985;DHT22;10651;47.552;7.606;2023-07-08T11:26:17;24.70;99.90
20985;DHT22;10651;47.552;7.606;2023-07-08T11:28:45;24.90;99.90
20985;DHT22;10651;47.552;7.606;2023-07-08T11:31:11;25.00;99.90
20985;DHT22;10651;47.552;7.606;2023-07-08T11:33:38;25.30;99.90
20985;DHT22;10651;47.552;7.606;2023-07-08T11:36:05;25.80;99.90
20985;DHT22;10651;47.552;7.606;2023-07-08T11:38:33;25.70;99.90
20985;DHT22;10651;47.552;7.606;2023-07-08T11:41:15;25.90;99.90
20985;DHT22;10651;47.552;7.606;2023-07-08T11:43:58;26.00;99.90
20985;DHT22;10651;47.552;7.606;2023-07-08T11:46:26;25.80;99.90
20985;DHT22;10651;47.552;7.606;2023-07-08T11:49:02;26.00;99.90
20985;DHT22;10651;47.552;7.606;2023-07-08T11:51:32;25.90;99.90
20985;DHT22;10651;47.552;7.606;2023-07-08T11:59:25;25.90;99.90
20985;DHT22;10651;47.552;7.606;2023-07-08T12:01:52;25.90;99.90
20985;DHT22;10651;47.552;7.606;2023-07-08T12:04:34;25.90;99.90
20985;DHT22;10651;47.552;7.606;2023-07-08T12:12:37;26.50;99.90
20985;DHT22;10651;47.552;7.606;2023-07-08T12:15:26;26.50;99.90
20985;DHT22;10651;47.552;7.606;2023-07-08T12:17:57;26.70;99.90
20985;DHT22;10651;47.552;7.606;2023-07-08T12:22:55;26.60;99.90
20985;DHT22;10651;47.552;7.606;2023-07-08T12:25:29;26.80;99.90
20985;DHT22;10651;47.552;7.606;2023-07-08T12:27:56;27.10;99.90
20985;DHT22;10651;47.552;7.606;2023-07-08T12:30:23;27.20;99.90
20985;DHT22;10651;47.552;7.606;2023-07-08T12:32:49;27.30;99.90
20985;DHT22;10651;47.552;7.606;2023-07-08T12:35:33;27.70;99.90
20985;DHT22;10651;47.552;7.606;2023-07-08T12:38:35;27.80;99.90
20985;DHT22;10651;47.552;7.606;2023-07-08T12:43:36;27.10;99.90
20985;DHT22;10651;47.552;7.606;2023-07-08T12:49:24;26.70;99.90
20985;DHT22;10651;47.552;7.606;2023-07-08T12:51:52;26.80;99.90
20985;DHT22;10651;47.552;7.606;2023-07-08T12:54:18;26.80;99.90
20985;DHT22;10651;47.552;7.606;2023-07-08T12:56:45;26.90;99.90
20985;DHT22;10651;47.552;7.606;2023-07-08T12:59:19;27.10;99.90
20985;DHT22;10651;47.552;7.606;2023-07-08T13:01:47;27.20;99.90
20985;DHT22;10651;47.552;7.606;2023-07-08T13:04:20;27.20;99.90
20985;DHT22;10651;47.552;7.606;2023-07-08T13:06:47;27.20;99.90
20985;DHT22;10651;47.552;7.606;2023-07-08T13:12:20;27.80;99.90
20985;DHT22;10651;47.552;7.606;2023-07-08T13:15:23;27.70;99.90
20985;DHT22;10651;47.552;7.606;2023-07-08T13:18:33;28.10;99.90
20985;DHT22;10651;47.552;7.606;2023-07-08T13:22:02;28.30;99.90
20985;DHT22;10651;47.552;7.606;2023-07-08T13:25:00;28.20;99.90
20985;DHT22;10651;47.552;7.606;2023-07-08T13:31:18;28.20;99.90
20985;DHT22;10651;47.552;7.606;2023-07-08T13:33:57;28.30;99.90
20985;DHT22;10651;47.552;7.606;2023-07-08T13:36:39;28.40;99.90
20985;DHT22;10651;47.552;7.606;2023-07-08T13:39:33;28.40;99.90
20985;DHT22;10651;47.552;7.606;2023-07-08T13:42:53;28.50;99.90
20985;DHT22;10651;47.552;7.606;2023-07-08T13:45:33;28.40;99.90
20985;DHT22;10651;47.552;7.606;2023-07-08T13:48:22;28.60;99.90
20985;DHT22;10651;47.552;7.606;2023-07-08T13:51:31;28.90;99.90
20985;DHT22;10651;47.552;7.606;2023-07-08T13:55:08;28.90;99.90
20985;DHT22;10651;47.552;7.606;2023-07-08T13:57:58;29.00;99.90
20985;DHT22;10651;47.552;7.606;2023-07-08T14:00:29;29.10;99.90
20985;DHT22;10651;47.552;7.606;2023-07-08T14:03:11;29.20;99.90
20985;DHT22;10651;47.552;7.606;2023-07-08T14:05:55;29.10;99.90
20985;DHT22;10651;47.552;7.606;2023-07-08T14:08:42;29.10;99.90
20985;DHT22;10651;47.552;7.606;2023-07-08T14:11:38;29.30;99.90
20985;DHT22;10651;47.552;7.606;2023-07-08T14:14:25;29.40;99.90
20985;DHT22;10651;47.552;7.606;2023-07-08T14:17:07;29.40;99.90
20985;DHT22;10651;47.552;7.606;2023-07-08T14:22:53;29.40;99.90
20985;DHT22;10651;47.552;7.606;2023-07-08T14:25:34;29.60;99.90
20985;DHT22;10651;47.552;7.606;2023-07-08T14:31:10;29.70;99.90
20985;DHT22;10651;47.552;7.606;2023-07-08T14:34:35;29.60;99.90
20985;DHT22;10651;47.552;7.606;2023-07-08T14:41:09;29.70;99.90
20985;DHT22;10651;47.552;7.606;2023-07-08T14:44:31;29.80;99.90
20985;DHT22;10651;47.552;7.606;2023-07-08T14:50:20;29.80;99.90
20985;DHT22;10651;47.552;7.606;2023-07-08T14:52:55;29.90;99.90
20985;DHT22;10651;47.552;7.606;2023-07-08T14:55:42;30.00;99.90
20985;DHT22;10651;47.552;7.606;2023-07-08T14:58:32;30.00;99.90
20985;DHT22;10651;47.552;7.606;2023-07-08T15:01:28;29.80;99.90
20985;DHT22;10651;47.552;7.606;2023-07-08T15:04:24;29.80;99.90
20985;DHT22;10651;47.552;7.606;2023-07-08T15:10:04;29.90;99.90
20985;DHT22;10651;47.552;7.606;2023-07-08T15:12:30;30.10;99.90
20985;DHT22;10651;47.552;7.606;2023-07-08T15:15:39;30.10;99.90
20985;DHT22;10651;47.552;7.606;2023-07-08T15:18:24;30.20;99.90
20985;DHT22;10651;47.552;7.606;2023-07-08T15:21:39;30.20;99.90
20985;DHT22;10651;47.552;7.606;2023-07-08T15:24:49;29.90;99.90
20985;DHT22;10651;47.552;7.606;2023-07-08T15:30:43;29.80;99.90
20985;DHT22;10651;47.552;7.606;2023-07-08T15:40:09;30.00;99.90
20985;DHT22;10651;47.552;7.606;2023-07-08T15:52:22;30.00;99.90
20985;DHT22;10651;47.552;7.606;2023-07-08T15:54:51;30.00;99.90
20985;DHT22;10651;47.552;7.606;2023-07-08T16:01:25;29.90;99.90
20985;DHT22;10651;47.552;7.606;2023-07-08T16:04:32;29.80;99.90
20985;DHT22;10651;47.552;7.606;2023-07-08T16:07:25;29.70;99.90
20985;DHT22;10651;47.552;7.606;2023-07-08T16:10:00;29.80;99.90
20985;DHT22;10651;47.552;7.606;2023-07-08T16:12:41;29.70;99.90
20985;DHT22;10651;47.552;7.606;2023-07-08T16:18:49;29.60;99.90
20985;DHT22;10651;47.552;7.606;2023-07-08T16:21:38;29.60;99.90
20985;DHT22;10651;47.552;7.606;2023-07-08T16:26:57;29.50;99.90
20985;DHT22;10651;47.552;7.606;2023-07-08T16:29:46;29.50;99.90
20985;DHT22;10651;47.552;7.606;2023-07-08T16:35:22;29.50;99.90
20985;DHT22;10651;47.552;7.606;2023-07-08T16:38:07;29.50;99.90
20985;DHT22;10651;47.552;7.606;2023-07-08T16:40:46;29.50;99.90
20985;DHT22;10651;47.552;7.606;2023-07-08T16:43:47;29.40;99.90
20985;DHT22;10651;47.552;7.606;2023-07-08T16:49:48;29.40;99.90
20985;DHT22;10651;47.552;7.606;2023-07-08T16:52:42;29.20;99.90
20985;DHT22;10651;47.552;7.606;2023-07-08T16:55:26;29.10;99.90
20985;DHT22;10651;47.552;7.606;2023-07-08T16:58:01;29.00;99.90
20985;DHT22;10651;47.552;7.606;2023-07-08T17:00:53;28.80;99.90
20985;DHT22;10651;47.552;7.606;2023-07-08T17:03:40;28.80;99.90
20985;DHT22;10651;47.552;7.606;2023-07-08T17:09:04;28.60;99.90
20985;DHT22;10651;47.552;7.606;2023-07-08T17:21:42;28.20;99.90
20985;DHT22;10651;47.552;7.606;2023-07-08T17:27:09;28.10;99.90
20985;DHT22;10651;47.552;7.606;2023-07-08T17:33:43;28.00;99.90
20985;DHT22;10651;47.552;7.606;2023-07-08T17:36:35;28.00;99.90
20985;DHT22;10651;47.552;7.606;2023-07-08T17:39:03;28.00;99.90
20985;DHT22;10651;47.552;7.606;2023-07-08T17:51:27;27.90;99.90
20985;DHT22;10651;47.552;7.606;2023-07-08T17:53:56;27.80;99.90
20985;DHT22;10651;47.552;7.606;2023-07-08T17:56:32;27.80;99.90
20985;DHT22;10651;47.552;7.606;2023-07-08T17:58:59;27.80;99.90
20985;DHT22;10651;47.552;7.606;2023-07-08T18:01:28;27.80;99.90
20985;DHT22;10651;47.552;7.606;2023-07-08T18:03:56;27.80;99.90
20985;DHT22;10651;47.552;7.606;2023-07-08T18:06:35;27.80;99.90
20985;DHT22;10651;47.552;7.606;2023-07-08T18:09:09;27.80;99.90
20985;DHT22;10651;47.552;7.606;2023-07-08T18:11:44;27.60;99.90
20985;DHT22;10651;47.552;7.606;2023-07-08T18:14:11;27.60;99.90
20985;DHT22;10651;47.552;7.606;2023-07-08T18:16:37;27.50;99.90
20985;DHT22;10651;47.552;7.606;2023-07-08T18:19:04;27.40;99.90
20985;DHT22;10651;47.552;7.606;2023-07-08T18:21:30;27.40;99.90
20985;DHT22;10651;47.552;7.606;2023-07-08T18:23:59;27.30;99.90
20985;DHT22;10651;47.552;7.606;2023-07-08T18:26:29;27.20;99.90
20985;DHT22;10651;47.552;7.606;2023-07-08T18:28:58;27.20;99.90
20985;DHT22;10651;47.552;7.606;2023-07-08T18:31:31;27.10;99.90
20985;DHT22;10651;47.552;7.606;2023-07-08T18:33:58;27.10;99.90
20985;DHT22;10651;47.552;7.606;2023-07-08T18:36:27;27.00;99.90
20985;DHT22;10651;47.552;7.606;2023-07-08T18:38:56;26.90;99.90
20985;DHT22;10651;47.552;7.606;2023-07-08T18:41:25;26.90;99.90
20985;DHT22;10651;47.552;7.606;2023-07-08T18:43:51;26.90;99.90
20985;DHT22;10651;47.552;7.606;2023-07-08T18:46:49;26.80;99.90
20985;DHT22;10651;47.552;7.606;2023-07-08T18:49:20;26.80;99.90
20985;DHT22;10651;47.552;7.606;2023-07-08T18:51:46;26.70;99.90
20985;DHT22;10651;47.552;7.606;2023-07-08T18:54:16;26.60;99.90
20985;DHT22;10651;47.552;7.606;2023-07-08T18:56:46;26.50;99.90
20985;DHT22;10651;47.552;7.606;2023-07-08T18:59:15;26.50;99.90
20985;DHT22;10651;47.552;7.606;2023-07-08T19:01:48;26.50;99.90
20985;DHT22;10651;47.552;7.606;2023-07-08T19:04:22;26.40;99.90
20985;DHT22;10651;47.552;7.606;2023-07-08T19:06:48;26.30;99.90
20985;DHT22;10651;47.552;7.606;2023-07-08T19:09:14;26.30;99.90
20985;DHT22;10651;47.552;7.606;2023-07-08T19:11:41;26.10;99.90
20985;DHT22;10651;47.552;7.606;2023-07-08T19:14:15;25.90;99.90
20985;DHT22;10651;47.552;7.606;2023-07-08T19:16:42;25.80;99.90
20985;DHT22;10651;47.552;7.606;2023-07-08T19:19:10;25.80;99.90
20985;DHT22;10651;47.552;7.606;2023-07-08T19:21:39;25.80;99.90
20985;DHT22;10651;47.552;7.606;2023-07-08T19:24:09;25.80;99.90
20985;DHT22;10651;47.552;7.606;2023-07-08T19:26:36;25.80;99.90
20985;DHT22;10651;47.552;7.606;2023-07-08T19:29:02;25.70;99.90
20985;DHT22;10651;47.552;7.606;2023-07-08T19:31:32;25.70;99.90
20985;DHT22;10651;47.552;7.606;2023-07-08T19:34:04;25.70;99.90
20985;DHT22;10651;47.552;7.606;2023-07-08T19:36:31;25.60;99.90
20985;DHT22;10651;47.552;7.606;2023-07-08T19:38:58;25.60;99.90
20985;DHT22;10651;47.552;7.606;2023-07-08T19:41:27;25.50;99.90
20985;DHT22;10651;47.552;7.606;2023-07-08T19:43:58;25.50;99.90
20985;DHT22;10651;47.552;7.606;2023-07-08T19:46:24;25.50;99.90
20985;DHT22;10651;47.552;7.606;2023-07-08T19:48:50;25.40;99.90
20985;DHT22;10651;47.552;7.606;2023-07-08T19:51:16;25.40;99.90
20985;DHT22;10651;47.552;7.606;2023-07-08T19:53:42;25.40;99.90
20985;DHT22;10651;47.552;7.606;2023-07-08T19:56:15;25.30;99.90
20985;DHT22;10651;47.552;7.606;2023-07-08T19:58:45;25.20;99.90
20985;DHT22;10651;47.552;7.606;2023-07-08T20:01:12;25.20;99.90
20985;DHT22;10651;47.552;7.606;2023-07-08T20:03:39;25.20;99.90
20985;DHT22;10651;47.552;7.606;2023-07-08T20:06:20;25.10;99.90
20985;DHT22;10651;47.552;7.606;2023-07-08T20:08:47;25.10;99.90
20985;DHT22;10651;47.552;7.606;2023-07-08T20:11:13;25.10;99.90
20985;DHT22;10651;47.552;7.606;2023-07-08T20:13:39;25.10;99.90
20985;DHT22;10651;47.552;7.606;2023-07-08T20:16:16;25.00;99.90
20985;DHT22;10651;47.552;7.606;2023-07-08T20:18:44;25.00;99.90
20985;DHT22;10651;47.552;7.606;2023-07-08T20:21:10;24.90;99.90
20985;DHT22;10651;47.552;7.606;2023-07-08T20:23:36;24.80;99.90
20985;DHT22;10651;47.552;7.606;2023-07-08T20:26:04;24.80;99.90
20985;DHT22;10651;47.552;7.606;2023-07-08T20:28:31;24.70;99.90
20985;DHT22;10651;47.552;7.606;2023-07-08T20:30:58;24.60;99.90
20985;DHT22;10651;47.552;7.606;2023-07-08T20:33:25;24.70;99.90
20985;DHT22;10651;47.552;7.606;2023-07-08T20:35:52;24.60;99.90
20985;DHT22;10651;47.552;7.606;2023-07-08T20:38:18;24.60;99.90
20985;DHT22;10651;47.552;7.606;2023-07-08T20:40:45;24.50;99.90
20985;DHT22;10651;47.552;7.606;2023-07-08T20:43:13;24.50;99.90
20985;DHT22;10651;47.552;7.606;2023-07-08T20:45:42;24.50;99.90
20985;DHT22;10651;47.552;7.606;2023-07-08T20:48:24;24.50;99.90
20985;DHT22;10651;47.552;7.606;2023-07-08T20:50:51;24.50;99.90
20985;DHT22;10651;47.552;7.606;2023-07-08T20:53:18;24.40;99.90
20985;DHT22;10651;47.552;7.606;2023-07-08T20:55:45;24.40;99.90
20985;DHT22;10651;47.552;7.606;2023-07-08T20:58:20;24.40;99.90
20985;DHT22;10651;47.552;7.606;2023-07-08T21:00:46;24.40;99.90
20985;DHT22;10651;47.552;7.606;2023-07-08T21:03:14;24.30;99.90
20985;DHT22;10651;47.552;7.606;2023-07-08T21:05:42;24.30;99.90
20985;DHT22;10651;47.552;7.606;2023-07-08T21:08:36;24.20;99.90
20985;DHT22;10651;47.552;7.606;2023-07-08T21:11:03;24.20;99.90
20985;DHT22;10651;47.552;7.606;2023-07-08T21:13:29;24.20;99.90
20985;DHT22;10651;47.552;7.606;2023-07-08T21:15:58;24.10;99.90
20985;DHT22;10651;47.552;7.606;2023-07-08T21:18:29;24.10;99.90
20985;DHT22;10651;47.552;7.606;2023-07-08T21:20:56;24.10;99.90
20985;DHT22;10651;47.552;7.606;2023-07-08T21:23:22;24.10;99.90
20985;DHT22;10651;47.552;7.606;2023-07-08T21:25:51;24.10;99.90
20985;DHT22;10651;47.552;7.606;2023-07-08T21:28:30;24.00;99.90
